createdAt,value
2023-02-04T00:01:58.273Z,13.35
2023-02-04T00:04:24.884Z,13.35
2023-02-04T00:06:51.523Z,14.18
2023-02-04T00:09:18.152Z,9.38
2023-02-04T00:11:45.653Z,9.45
2023-02-04T00:14:12.275Z,9.95
2023-02-04T00:16:38.904Z,9.25
2023-02-04T00:19:05.435Z,10.88
2023-02-04T00:21:31.943Z,6.20
2023-02-04T00:23:58.433Z,9.68
2023-02-04T00:26:25.059Z,12.70
2023-02-04T00:28:51.535Z,9.27
2023-02-04T00:31:18.134Z,8.65
2023-02-04T00:33:44.665Z,6.15
2023-02-04T00:36:11.152Z,6.28
2023-02-04T00:38:37.702Z,7.88
2023-02-04T00:41:04.367Z,7.03
2023-02-04T00:43:30.886Z,8.48
2023-02-04T00:45:57.457Z,5.15
2023-02-04T00:48:25.934Z,6.10
2023-02-04T00:50:54.166Z,5.05
2023-02-04T00:53:20.772Z,5.57
2023-02-04T00:55:47.238Z,7.13
2023-02-04T00:58:13.878Z,7.22
2023-02-04T01:00:40.518Z,5.85
2023-02-04T01:03:07.154Z,7.78
2023-02-04T01:05:33.689Z,6.35
2023-02-04T01:08:00.206Z,3.00
2023-02-04T01:10:26.924Z,4.80
2023-02-04T01:15:19.925Z,6.00
2023-02-04T01:17:46.565Z,4.57
2023-02-04T01:20:13.129Z,3.95
2023-02-04T01:22:39.797Z,5.03
2023-02-04T01:25:07.025Z,4.15
2023-02-04T01:27:33.520Z,6.47
2023-02-04T01:30:00.123Z,4.43
2023-02-04T01:32:26.629Z,3.67
2023-02-04T01:34:53.108Z,3.53
2023-02-04T01:37:19.591Z,5.78
2023-02-04T01:39:46.101Z,4.90
2023-02-04T01:42:12.677Z,4.00
2023-02-04T01:44:39.669Z,3.30
2023-02-04T01:47:06.528Z,2.78
2023-02-04T01:51:59.964Z,3.35
2023-02-04T01:54:26.877Z,4.40
2023-02-04T01:56:55.289Z,3.10
2023-02-04T01:59:22.323Z,3.25
2023-02-04T02:01:52.090Z,3.53
2023-02-04T02:04:26.985Z,3.58
2023-02-04T02:06:57.261Z,3.10
2023-02-04T02:09:23.950Z,2.70
2023-02-04T02:14:17.006Z,3.55
2023-02-04T02:16:43.867Z,2.70
2023-02-04T02:21:46.101Z,4.88
2023-02-04T02:24:30.321Z,2.97
2023-02-04T02:26:59.977Z,2.35
2023-02-04T02:29:27.504Z,3.40
2023-02-04T02:31:57.564Z,3.75
2023-02-04T02:34:25.712Z,2.30
2023-02-04T02:36:52.402Z,2.40
2023-02-04T02:39:19.559Z,3.42
2023-02-04T02:41:46.713Z,2.55
2023-02-04T02:44:15.049Z,2.45
2023-02-04T02:46:41.804Z,2.58
2023-02-04T02:51:40.054Z,2.50
2023-02-04T02:54:06.551Z,2.83
2023-02-04T02:56:33.176Z,2.25
2023-02-04T02:59:13.569Z,2.35
2023-02-04T03:01:40.493Z,2.28
2023-02-04T03:04:07.163Z,2.45
2023-02-04T03:06:33.691Z,2.50
2023-02-04T03:09:00.471Z,2.42
2023-02-04T03:13:58.086Z,2.67
2023-02-04T03:16:24.570Z,2.50
2023-02-04T03:18:51.121Z,2.72
2023-02-04T03:21:17.646Z,2.75
2023-02-04T03:23:44.261Z,2.60
2023-02-04T03:26:10.800Z,2.50
2023-02-04T03:28:42.277Z,2.78
2023-02-04T03:31:09.110Z,2.70
2023-02-04T03:33:36.084Z,2.90
2023-02-04T03:36:02.594Z,2.78
2023-02-04T03:38:29.184Z,2.60
2023-02-04T03:40:55.678Z,2.60
2023-02-04T03:43:22.191Z,2.78
2023-02-04T03:45:48.722Z,2.65
2023-02-04T03:48:15.236Z,2.88
2023-02-04T03:50:41.924Z,3.05
2023-02-04T03:53:09.157Z,2.55
2023-02-04T03:55:36.156Z,2.50
2023-02-04T03:58:03.812Z,3.08
2023-02-04T04:00:32.543Z,3.00
2023-02-04T04:02:59.823Z,2.90
2023-02-04T04:05:27.983Z,2.55
2023-02-04T04:07:54.519Z,2.60
2023-02-04T04:10:21.035Z,3.05
2023-02-04T04:12:47.524Z,3.25
2023-02-04T04:15:13.978Z,3.00
2023-02-04T04:17:40.476Z,3.10
2023-02-04T04:20:07.346Z,2.90
2023-02-04T04:25:00.564Z,2.78
2023-02-04T04:27:27.112Z,2.90
2023-02-04T04:29:53.609Z,2.40
2023-02-04T04:32:20.411Z,2.92
2023-02-04T04:37:13.810Z,3.58
2023-02-04T04:39:40.443Z,2.85
2023-02-04T04:42:06.995Z,3.03
2023-02-04T04:44:33.513Z,2.55
2023-02-04T04:47:00.188Z,2.80
2023-02-04T04:49:26.777Z,2.90
2023-02-04T04:51:53.303Z,2.80
2023-02-04T04:54:19.791Z,3.05
2023-02-04T04:56:46.364Z,3.20
2023-02-04T04:59:12.894Z,3.17
2023-02-04T05:01:39.603Z,2.90
2023-02-04T05:04:06.118Z,2.97
2023-02-04T05:06:32.620Z,2.53
2023-02-04T05:08:59.099Z,2.78
2023-02-04T05:11:25.625Z,2.67
2023-02-04T05:13:52.162Z,3.15
2023-02-04T05:16:18.782Z,2.92
2023-02-04T05:18:45.353Z,2.83
2023-02-04T05:21:11.917Z,3.33
2023-02-04T05:23:38.441Z,3.00
2023-02-04T05:26:05.187Z,2.70
2023-02-04T05:28:31.706Z,2.72
2023-02-04T05:30:58.297Z,2.65
2023-02-04T05:33:24.820Z,3.25
2023-02-04T05:35:51.363Z,2.53
2023-02-04T05:38:17.940Z,2.83
2023-02-04T05:40:44.440Z,3.00
2023-02-04T05:43:10.989Z,3.60
2023-02-04T05:45:37.527Z,4.03
2023-02-04T05:48:04.321Z,4.70
2023-02-04T05:50:31.355Z,5.47
2023-02-04T05:52:58.137Z,3.70
2023-02-04T05:55:24.666Z,3.42
2023-02-04T05:57:51.181Z,3.13
2023-02-04T06:00:17.809Z,3.15
2023-02-04T06:02:44.270Z,3.85
2023-02-04T06:05:10.753Z,3.00
2023-02-04T06:07:37.281Z,3.65
2023-02-04T06:10:03.966Z,3.25
2023-02-04T06:12:30.966Z,3.00
2023-02-04T06:14:57.492Z,3.97
2023-02-04T06:17:24.018Z,3.33
2023-02-04T06:19:50.531Z,3.03
2023-02-04T06:22:17.368Z,3.42
2023-02-04T06:27:10.586Z,3.88
2023-02-04T06:29:37.057Z,3.65
2023-02-04T06:32:03.689Z,3.42
2023-02-04T06:34:30.225Z,3.47
2023-02-04T06:36:56.722Z,3.47
2023-02-04T06:39:23.295Z,3.60
2023-02-04T06:41:49.760Z,3.05
2023-02-04T06:44:16.273Z,3.67
2023-02-04T06:46:42.790Z,3.80
2023-02-04T06:49:09.324Z,3.75
2023-02-04T06:51:35.836Z,3.72
2023-02-04T06:54:02.325Z,3.80
2023-02-04T06:56:29.924Z,3.97
2023-02-04T06:58:56.549Z,4.35
2023-02-04T07:01:23.089Z,4.63
2023-02-04T07:03:49.662Z,4.03
2023-02-04T07:06:16.456Z,4.75
2023-02-04T07:11:09.439Z,4.82
2023-02-04T07:13:35.892Z,4.93
2023-02-04T07:16:02.694Z,4.55
2023-02-04T07:20:55.627Z,5.20
2023-02-04T07:23:22.135Z,6.68
2023-02-04T07:25:49.209Z,5.95
2023-02-04T07:30:42.329Z,6.90
2023-02-04T07:35:35.371Z,5.53
2023-02-04T07:38:01.883Z,5.57
2023-02-04T07:40:28.494Z,5.40
2023-02-04T07:42:55.078Z,5.18
2023-02-04T07:45:21.577Z,4.45
2023-02-04T07:47:48.132Z,4.13
2023-02-04T07:50:14.877Z,4.50
2023-02-04T07:52:41.417Z,3.78
2023-02-04T07:55:08.470Z,4.10
2023-02-04T07:57:35.119Z,3.70
2023-02-04T08:00:01.729Z,4.20
2023-02-04T08:02:28.420Z,3.72
2023-02-04T08:04:54.951Z,3.63
2023-02-04T08:07:21.487Z,5.13
2023-02-04T08:09:48.147Z,4.28
2023-02-04T08:12:14.715Z,3.25
2023-02-04T08:14:41.429Z,3.85
2023-02-04T08:17:07.945Z,4.43
2023-02-04T08:19:34.478Z,4.85
2023-02-04T08:22:00.948Z,8.82
2023-02-04T08:24:27.483Z,9.82
2023-02-04T08:26:53.937Z,16.75
2023-02-04T08:29:20.614Z,10.60
2023-02-04T08:31:47.897Z,28.55
2023-02-04T08:34:14.870Z,12.70
2023-02-04T08:36:41.441Z,14.18
2023-02-04T08:39:07.944Z,8.27
2023-02-04T08:41:34.432Z,7.35
2023-02-04T08:44:01.052Z,6.22
2023-02-04T08:46:27.717Z,6.63
2023-02-04T08:48:54.226Z,6.00
2023-02-04T08:51:20.801Z,4.28
2023-02-04T08:53:47.311Z,3.95
2023-02-04T08:56:16.683Z,3.78
2023-02-04T08:58:44.332Z,3.80
2023-02-04T09:01:11.436Z,3.92
2023-02-04T09:03:38.755Z,3.78
2023-02-04T09:06:06.583Z,4.05
2023-02-04T09:08:33.495Z,3.53
2023-02-04T09:11:00.175Z,3.83
2023-02-04T09:13:26.674Z,3.67
2023-02-04T09:15:54.296Z,3.92
2023-02-04T09:18:22.524Z,3.45
2023-02-04T09:20:49.790Z,3.85
2023-02-04T09:23:16.951Z,4.25
2023-02-04T09:25:45.208Z,3.53
2023-02-04T09:28:13.167Z,3.63
2023-02-04T09:30:41.203Z,3.50
2023-02-04T09:33:09.208Z,4.32
2023-02-04T09:35:35.914Z,4.18
2023-02-04T09:40:38.070Z,3.97
2023-02-04T09:43:06.816Z,3.88
2023-02-04T09:45:35.503Z,4.43
2023-02-04T09:48:06.853Z,4.47
2023-02-04T09:50:34.703Z,3.70
2023-02-04T09:53:05.465Z,3.95
2023-02-04T09:55:39.795Z,3.88
2023-02-04T09:58:13.864Z,3.72
2023-02-04T10:00:40.410Z,3.38
2023-02-04T10:03:18.295Z,3.30
2023-02-04T10:05:46.868Z,3.33
2023-02-04T10:08:18.898Z,3.67
2023-02-04T10:10:48.150Z,3.00
2023-02-04T10:13:19.625Z,2.92
2023-02-04T10:15:48.618Z,3.00
2023-02-04T10:18:25.293Z,3.17
2023-02-04T10:20:57.599Z,3.10
2023-02-04T10:23:24.374Z,2.97
2023-02-04T10:25:50.865Z,4.43
2023-02-04T10:28:18.564Z,3.10
2023-02-04T10:30:47.265Z,3.08
2023-02-04T10:33:16.138Z,2.88
2023-02-04T10:35:51.345Z,3.90
2023-02-04T10:38:18.365Z,3.38
2023-02-04T10:40:46.197Z,3.28
2023-02-04T10:43:17.446Z,2.80
2023-02-04T10:45:54.801Z,3.25
2023-02-04T10:48:21.742Z,3.03
2023-02-04T10:50:49.344Z,5.28
2023-02-04T10:53:37.483Z,3.65
2023-02-04T10:56:05.006Z,4.20
2023-02-04T10:58:32.487Z,4.20
2023-02-04T11:00:59.120Z,3.80
2023-02-04T11:05:57.535Z,3.47
2023-02-04T11:08:32.150Z,3.90
2023-02-04T11:11:05.700Z,3.25
2023-02-04T11:13:44.310Z,2.80
2023-02-04T11:16:31.545Z,2.72
2023-02-04T11:19:07.131Z,3.00
2023-02-04T11:21:33.641Z,3.00
2023-02-04T11:24:12.497Z,4.43
2023-02-04T11:26:41.351Z,2.55
2023-02-04T11:29:16.227Z,4.00
2023-02-04T11:31:58.159Z,2.90
2023-02-04T11:34:28.186Z,3.70
2023-02-04T11:36:56.991Z,3.10
2023-02-04T11:39:29.256Z,2.88
2023-02-04T11:41:55.843Z,2.60
2023-02-04T11:44:23.173Z,2.83
2023-02-04T11:46:57.012Z,2.47
2023-02-04T11:49:25.777Z,2.80
2023-02-04T11:52:04.208Z,2.58
2023-02-04T11:54:30.707Z,2.40
2023-02-04T11:56:59.983Z,2.72
2023-02-04T11:59:26.676Z,2.55
2023-02-04T12:04:29.942Z,3.97
2023-02-04T12:07:03.352Z,3.28
2023-02-04T12:09:31.641Z,3.08
2023-02-04T12:12:03.277Z,3.53
2023-02-04T12:14:33.618Z,3.80
2023-02-04T12:17:00.311Z,3.30
2023-02-04T12:21:55.225Z,2.63
2023-02-04T12:24:21.838Z,2.30
2023-02-04T12:29:14.746Z,2.05
2023-02-04T12:31:41.370Z,2.13
2023-02-04T12:36:34.395Z,2.00
2023-02-04T12:39:00.877Z,1.92
2023-02-04T12:41:28.432Z,2.03
2023-02-04T12:43:55.760Z,2.40
2023-02-04T12:46:22.588Z,1.95
2023-02-04T12:48:49.135Z,2.38
2023-02-04T12:51:15.827Z,2.15
2023-02-04T12:53:42.308Z,2.33
2023-02-04T12:56:08.884Z,2.28
2023-02-04T12:58:35.363Z,2.45
2023-02-04T13:01:04.191Z,2.10
2023-02-04T13:03:31.261Z,2.35
2023-02-04T13:05:57.860Z,2.40
2023-02-04T13:10:52.321Z,2.00
2023-02-04T13:13:19.921Z,2.00
2023-02-04T13:15:47.091Z,3.38
2023-02-04T13:18:13.615Z,2.97
2023-02-04T13:20:40.101Z,2.22
2023-02-04T13:23:06.885Z,2.22
2023-02-04T13:25:33.898Z,2.50
2023-02-04T13:28:00.814Z,2.10
2023-02-04T13:30:27.372Z,2.10
2023-02-04T13:35:20.392Z,1.80
2023-02-04T13:37:46.909Z,2.10
2023-02-04T13:40:13.881Z,2.75
2023-02-04T13:42:40.371Z,2.03
2023-02-04T13:45:10.576Z,2.13
2023-02-04T13:47:37.031Z,2.00
2023-02-04T13:50:03.734Z,2.10
2023-02-04T13:54:56.694Z,2.40
2023-02-04T13:57:23.230Z,2.08
2023-02-04T13:59:49.701Z,2.35
2023-02-04T14:02:16.218Z,2.10
2023-02-04T14:04:43.989Z,2.20
2023-02-04T14:07:10.605Z,2.05
2023-02-04T14:12:03.861Z,2.00
2023-02-04T14:16:57.022Z,2.30
2023-02-04T14:19:27.639Z,2.50
2023-02-04T14:21:54.202Z,2.38
2023-02-04T14:24:21.563Z,2.70
2023-02-04T14:26:48.117Z,2.60
2023-02-04T14:29:14.709Z,2.70
2023-02-04T14:31:41.319Z,2.70
2023-02-04T14:34:07.867Z,2.70
2023-02-04T14:36:34.381Z,2.42
2023-02-04T14:39:00.939Z,2.30
2023-02-04T14:41:30.110Z,2.33
2023-02-04T14:43:57.125Z,2.40
2023-02-04T14:46:24.056Z,2.20
2023-02-04T14:48:52.157Z,2.20
2023-02-04T14:51:19.720Z,2.17
2023-02-04T14:53:48.769Z,3.08
2023-02-04T14:56:16.280Z,3.22
2023-02-04T14:58:42.925Z,3.20
2023-02-04T15:01:09.706Z,2.63
2023-02-04T15:03:36.411Z,4.10
2023-02-04T15:08:29.381Z,2.58
2023-02-04T15:10:55.877Z,2.58
2023-02-04T15:13:22.469Z,3.50
2023-02-04T15:15:49.006Z,2.38
2023-02-04T15:18:15.890Z,3.47
2023-02-04T15:20:42.377Z,3.05
2023-02-04T15:23:12.979Z,4.25
2023-02-04T15:25:40.288Z,3.70
2023-02-04T15:28:07.330Z,2.92
2023-02-04T15:30:34.427Z,2.60
2023-02-04T15:33:01.251Z,2.55
2023-02-04T15:35:27.758Z,2.47
2023-02-04T15:37:54.262Z,2.70
2023-02-04T15:40:22.401Z,2.85
2023-02-04T15:42:48.894Z,3.03
2023-02-04T15:45:15.547Z,2.50
2023-02-04T15:50:11.092Z,3.08
2023-02-04T15:52:37.776Z,2.80
2023-02-04T15:57:30.887Z,2.90
2023-02-04T15:59:58.140Z,3.10
2023-02-04T16:02:24.689Z,3.50
2023-02-04T16:04:51.672Z,3.53
2023-02-04T16:07:18.205Z,3.63
2023-02-04T16:09:44.831Z,3.88
2023-02-04T16:12:11.401Z,3.40
2023-02-04T16:14:37.941Z,3.80
2023-02-04T16:17:06.971Z,4.03
2023-02-04T16:19:33.599Z,4.47
2023-02-04T16:22:06.745Z,4.30
2023-02-04T16:24:33.788Z,4.55
2023-02-04T16:27:00.282Z,4.00
2023-02-04T16:29:27.036Z,3.85
2023-02-04T16:34:20.689Z,4.00
2023-02-04T16:36:47.245Z,4.57
2023-02-04T16:39:13.992Z,3.83
2023-02-04T16:41:40.480Z,3.45
2023-02-04T16:44:06.981Z,3.90
2023-02-04T16:46:34.018Z,3.13
2023-02-04T16:49:01.355Z,3.53
2023-02-04T16:51:28.705Z,3.83
2023-02-04T16:53:55.181Z,3.65
2023-02-04T16:56:21.768Z,3.55
2023-02-04T16:58:48.488Z,3.65
2023-02-04T17:03:44.641Z,5.40
2023-02-04T17:06:11.222Z,5.15
2023-02-04T17:08:37.706Z,5.25
2023-02-04T17:11:23.106Z,3.90
2023-02-04T17:13:49.595Z,3.83
2023-02-04T17:16:18.563Z,3.63
2023-02-04T17:18:45.107Z,3.60
2023-02-04T17:21:11.602Z,3.70
2023-02-04T17:23:38.170Z,4.25
2023-02-04T17:26:04.851Z,3.70
2023-02-04T17:28:31.437Z,4.97
2023-02-04T17:30:58.257Z,6.10
2023-02-04T17:33:24.802Z,4.55
2023-02-04T17:35:51.432Z,5.63
2023-02-04T17:38:18.013Z,5.15
2023-02-04T17:40:44.584Z,4.57
2023-02-04T17:43:11.160Z,5.32
2023-02-04T17:45:38.123Z,4.63
2023-02-04T17:48:05.593Z,4.95
2023-02-04T17:53:23.611Z,6.47
2023-02-04T17:55:50.078Z,6.13
2023-02-04T17:58:22.039Z,6.93
2023-02-04T18:00:49.429Z,6.68
2023-02-04T18:03:20.397Z,5.65
2023-02-04T18:05:52.197Z,6.82
2023-02-04T18:08:31.823Z,11.82
2023-02-04T18:10:58.588Z,15.57
2023-02-04T18:13:31.596Z,13.30
2023-02-04T18:16:10.298Z,13.93
2023-02-04T18:18:39.870Z,12.45
2023-02-04T18:21:31.300Z,10.48
2023-02-04T18:24:14.426Z,9.07
2023-02-04T18:26:51.714Z,8.43
2023-02-04T18:29:31.221Z,8.77
2023-02-04T18:32:10.788Z,13.57
2023-02-04T18:34:43.992Z,12.35
2023-02-04T18:37:35.818Z,10.45
2023-02-04T18:40:08.459Z,9.73
2023-02-04T18:42:38.420Z,10.18
2023-02-04T18:45:27.588Z,10.73
2023-02-04T18:48:13.965Z,13.82
2023-02-04T18:50:40.710Z,11.50
2023-02-04T18:55:41.980Z,11.40
2023-02-04T18:58:17.911Z,13.88
2023-02-04T19:00:49.670Z,15.48
2023-02-04T19:03:26.754Z,13.57
2023-02-04T19:05:55.240Z,18.58
2023-02-04T19:08:41.930Z,13.23
2023-02-04T19:11:27.142Z,17.02
2023-02-04T19:13:57.021Z,17.00
2023-02-04T19:16:26.621Z,17.30
2023-02-04T19:18:54.874Z,22.75
2023-02-04T19:21:27.391Z,19.08
2023-02-04T19:24:14.408Z,14.70
2023-02-04T19:26:47.274Z,11.40
2023-02-04T19:29:37.031Z,9.30
2023-02-04T19:32:28.062Z,8.95
2023-02-04T19:34:58.860Z,8.38
2023-02-04T19:37:41.507Z,8.73
2023-02-04T19:40:25.915Z,7.03
2023-02-04T19:43:16.391Z,8.18
2023-02-04T19:45:43.018Z,7.97
2023-02-04T19:48:22.753Z,7.38
2023-02-04T19:50:53.070Z,8.30
2023-02-04T19:53:22.528Z,6.55
2023-02-04T19:55:52.996Z,8.60
2023-02-04T19:58:39.407Z,9.05
2023-02-04T20:01:11.380Z,7.45
2023-02-04T20:03:44.365Z,7.72
2023-02-04T20:06:31.809Z,7.85
2023-02-04T20:09:00.597Z,7.82
2023-02-04T20:11:30.120Z,5.95
2023-02-04T20:14:10.380Z,6.93
2023-02-04T20:16:42.996Z,6.50
2023-02-04T20:19:31.214Z,6.22
2023-02-04T20:22:23.481Z,7.18
2023-02-04T20:24:59.161Z,7.18
2023-02-04T20:27:41.135Z,7.22
2023-02-04T20:30:08.074Z,7.13
2023-02-04T20:32:41.536Z,6.82
2023-02-04T20:35:13.963Z,6.80
2023-02-04T20:37:42.032Z,7.50
2023-02-04T20:40:19.430Z,6.93
2023-02-04T20:45:36.226Z,6.82
2023-02-04T20:48:28.254Z,6.53
2023-02-04T20:50:58.547Z,6.95
2023-02-04T20:53:39.382Z,9.35
2023-02-04T20:56:28.628Z,8.48
2023-02-04T20:59:19.444Z,10.00
2023-02-04T21:01:50.276Z,9.50
2023-02-04T21:04:30.405Z,9.90
2023-02-04T21:07:03.469Z,9.75
2023-02-04T21:09:32.791Z,10.30
2023-02-04T21:12:00.774Z,11.00
2023-02-04T21:14:29.063Z,9.30
2023-02-04T21:16:56.347Z,10.70
2023-02-04T21:19:24.695Z,10.43
2023-02-04T21:21:51.701Z,15.15
2023-02-04T21:24:18.451Z,12.25
2023-02-04T21:26:45.219Z,10.38
2023-02-04T21:29:11.836Z,9.10
2023-02-04T21:31:38.658Z,10.43
2023-02-04T21:34:05.913Z,25.02
2023-02-04T21:36:32.500Z,27.00
